sensor_id;sensor_type;location;lat;lon;timestamp;P1;durP1;ratioP1;P2;durP2;ratioP2
15230;SDS011;32569;51.762;8.564;2023-08-06T00:02:14;5.90;;;5.30;;
15230;SDS011;32569;51.762;8.564;2023-08-06T00:04:44;5.73;;;4.63;;
15230;SDS011;32569;51.762;8.564;2023-08-06T00:07:11;5.47;;;4.97;;
15230;SDS011;32569;51.762;8.564;2023-08-06T00:09:38;5.43;;;5.03;;
15230;SDS011;32569;51.762;8.564;2023-08-06T00:12:05;5.37;;;4.93;;
15230;SDS011;32569;51.762;8.564;2023-08-06T00:14:32;5.00;;;4.60;;
15230;SDS011;32569;51.762;8.564;2023-08-06T00:16:58;6.70;;;4.37;;
15230;SDS011;32569;51.762;8.564;2023-08-06T00:19:25;5.13;;;4.63;;
15230;SDS011;32569;51.762;8.564;2023-08-06T00:21:53;6.10;;;4.77;;
15230;SDS011;32569;51.762;8.564;2023-08-06T00:24:20;5.10;;;4.63;;
15230;SDS011;32569;51.762;8.564;2023-08-06T00:26:47;5.50;;;5.00;;
15230;SDS011;32569;51.762;8.564;2023-08-06T00:29:13;5.30;;;4.73;;
15230;SDS011;32569;51.762;8.564;2023-08-06T00:31:40;5.20;;;4.80;;
15230;SDS011;32569;51.762;8.564;2023-08-06T00:34:07;4.97;;;4.67;;
15230;SDS011;32569;51.762;8.564;2023-08-06T00:36:33;5.43;;;4.93;;
15230;SDS011;32569;51.762;8.564;2023-08-06T00:39:04;5.60;;;5.20;;
15230;SDS011;32569;51.762;8.564;2023-08-06T00:41:32;5.53;;;4.87;;
15230;SDS011;32569;51.762;8.564;2023-08-06T00:43:58;5.13;;;4.67;;
15230;SDS011;32569;51.762;8.564;2023-08-06T00:46:25;5.97;;;5.33;;
15230;SDS011;32569;51.762;8.564;2023-08-06T00:48:53;5.43;;;4.93;;
15230;SDS011;32569;51.762;8.564;2023-08-06T00:51:21;5.37;;;4.80;;
15230;SDS011;32569;51.762;8.564;2023-08-06T00:53:48;4.90;;;4.50;;
15230;SDS011;32569;51.762;8.564;2023-08-06T00:56:17;5.97;;;5.17;;
15230;SDS011;32569;51.762;8.564;2023-08-06T00:58:45;6.97;;;4.90;;
15230;SDS011;32569;51.762;8.564;2023-08-06T01:01:12;5.30;;;4.80;;
15230;SDS011;32569;51.762;8.564;2023-08-06T01:03:39;5.20;;;4.70;;
15230;SDS011;32569;51.762;8.564;2023-08-06T01:06:05;5.33;;;4.70;;
15230;SDS011;32569;51.762;8.564;2023-08-06T01:11:22;4.87;;;4.50;;
15230;SDS011;32569;51.762;8.564;2023-08-06T01:13:58;6.50;;;5.43;;
15230;SDS011;32569;51.762;8.564;2023-08-06T01:16:28;4.97;;;4.57;;
15230;SDS011;32569;51.762;8.564;2023-08-06T01:18:56;5.17;;;4.77;;
15230;SDS011;32569;51.762;8.564;2023-08-06T01:21:25;5.43;;;4.93;;
15230;SDS011;32569;51.762;8.564;2023-08-06T01:23:52;5.50;;;4.60;;
15230;SDS011;32569;51.762;8.564;2023-08-06T01:26:22;5.40;;;4.97;;
15230;SDS011;32569;51.762;8.564;2023-08-06T01:28:56;5.10;;;4.60;;
15230;SDS011;32569;51.762;8.564;2023-08-06T01:31:30;5.40;;;4.90;;
15230;SDS011;32569;51.762;8.564;2023-08-06T01:33:58;5.90;;;4.73;;
15230;SDS011;32569;51.762;8.564;2023-08-06T01:36:28;6.00;;;4.87;;
15230;SDS011;32569;51.762;8.564;2023-08-06T01:38:56;6.80;;;5.27;;
15230;SDS011;32569;51.762;8.564;2023-08-06T01:41:23;6.23;;;5.40;;
15230;SDS011;32569;51.762;8.564;2023-08-06T01:43:50;5.23;;;4.80;;
15230;SDS011;32569;51.762;8.564;2023-08-06T01:46:16;5.37;;;4.90;;
15230;SDS011;32569;51.762;8.564;2023-08-06T01:48:43;7.17;;;5.47;;
15230;SDS011;32569;51.762;8.564;2023-08-06T01:51:10;6.07;;;5.33;;
15230;SDS011;32569;51.762;8.564;2023-08-06T01:53:38;6.43;;;5.03;;
15230;SDS011;32569;51.762;8.564;2023-08-06T01:56:05;5.63;;;5.20;;
15230;SDS011;32569;51.762;8.564;2023-08-06T01:58:34;6.90;;;5.77;;
15230;SDS011;32569;51.762;8.564;2023-08-06T02:01:01;5.80;;;5.30;;
15230;SDS011;32569;51.762;8.564;2023-08-06T02:03:34;6.83;;;5.43;;
15230;SDS011;32569;51.762;8.564;2023-08-06T02:06:00;6.33;;;5.50;;
15230;SDS011;32569;51.762;8.564;2023-08-06T02:08:27;5.37;;;4.97;;
15230;SDS011;32569;51.762;8.564;2023-08-06T02:10:55;5.77;;;5.27;;
15230;SDS011;32569;51.762;8.564;2023-08-06T02:13:22;5.80;;;5.30;;
15230;SDS011;32569;51.762;8.564;2023-08-06T02:15:49;5.43;;;4.70;;
15230;SDS011;32569;51.762;8.564;2023-08-06T02:18:16;5.43;;;4.97;;
15230;SDS011;32569;51.762;8.564;2023-08-06T02:20:43;5.73;;;5.23;;
15230;SDS011;32569;51.762;8.564;2023-08-06T02:23:12;6.43;;;5.50;;
15230;SDS011;32569;51.762;8.564;2023-08-06T02:25:39;5.70;;;5.20;;
15230;SDS011;32569;51.762;8.564;2023-08-06T02:28:07;5.83;;;5.37;;
15230;SDS011;32569;51.762;8.564;2023-08-06T02:30:34;6.17;;;5.50;;
15230;SDS011;32569;51.762;8.564;2023-08-06T02:33:00;5.37;;;4.73;;
15230;SDS011;32569;51.762;8.564;2023-08-06T02:35:27;5.50;;;5.00;;
15230;SDS011;32569;51.762;8.564;2023-08-06T02:37:54;7.83;;;5.20;;
15230;SDS011;32569;51.762;8.564;2023-08-06T02:40:20;5.67;;;5.13;;
15230;SDS011;32569;51.762;8.564;2023-08-06T02:42:50;5.73;;;5.23;;
15230;SDS011;32569;51.762;8.564;2023-08-06T02:45:18;5.57;;;5.07;;
15230;SDS011;32569;51.762;8.564;2023-08-06T02:47:45;5.87;;;5.30;;
15230;SDS011;32569;51.762;8.564;2023-08-06T02:50:12;6.17;;;5.40;;
15230;SDS011;32569;51.762;8.564;2023-08-06T02:52:38;5.90;;;5.40;;
15230;SDS011;32569;51.762;8.564;2023-08-06T02:55:13;5.70;;;5.27;;
15230;SDS011;32569;51.762;8.564;2023-08-06T02:57:39;6.43;;;5.83;;
15230;SDS011;32569;51.762;8.564;2023-08-06T03:00:19;6.03;;;5.53;;
15230;SDS011;32569;51.762;8.564;2023-08-06T03:02:45;6.57;;;5.90;;
15230;SDS011;32569;51.762;8.564;2023-08-06T03:05:20;6.60;;;5.93;;
15230;SDS011;32569;51.762;8.564;2023-08-06T03:07:46;6.87;;;6.27;;
15230;SDS011;32569;51.762;8.564;2023-08-06T03:10:13;6.47;;;5.87;;
15230;SDS011;32569;51.762;8.564;2023-08-06T03:12:40;6.80;;;6.10;;
15230;SDS011;32569;51.762;8.564;2023-08-06T03:15:12;7.23;;;6.20;;
15230;SDS011;32569;51.762;8.564;2023-08-06T03:17:40;7.27;;;6.63;;
15230;SDS011;32569;51.762;8.564;2023-08-06T03:20:09;6.17;;;5.67;;
15230;SDS011;32569;51.762;8.564;2023-08-06T03:22:36;6.47;;;5.83;;
15230;SDS011;32569;51.762;8.564;2023-08-06T03:25:06;6.63;;;6.03;;
15230;SDS011;32569;51.762;8.564;2023-08-06T03:27:33;9.30;;;6.10;;
15230;SDS011;32569;51.762;8.564;2023-08-06T03:29:59;6.60;;;6.10;;
15230;SDS011;32569;51.762;8.564;2023-08-06T03:32:27;7.90;;;6.70;;
15230;SDS011;32569;51.762;8.564;2023-08-06T03:34:55;7.00;;;6.33;;
15230;SDS011;32569;51.762;8.564;2023-08-06T03:37:21;7.20;;;6.17;;
15230;SDS011;32569;51.762;8.564;2023-08-06T03:39:48;7.67;;;6.97;;
15230;SDS011;32569;51.762;8.564;2023-08-06T03:42:15;7.47;;;6.63;;
15230;SDS011;32569;51.762;8.564;2023-08-06T03:44:41;7.37;;;6.57;;
15230;SDS011;32569;51.762;8.564;2023-08-06T03:47:08;7.50;;;6.87;;
15230;SDS011;32569;51.762;8.564;2023-08-06T03:49:35;7.37;;;6.80;;
15230;SDS011;32569;51.762;8.564;2023-08-06T03:52:06;7.17;;;6.60;;
15230;SDS011;32569;51.762;8.564;2023-08-06T03:54:33;7.80;;;6.97;;
15230;SDS011;32569;51.762;8.564;2023-08-06T03:57:00;8.10;;;7.47;;
15230;SDS011;32569;51.762;8.564;2023-08-06T03:59:27;7.70;;;6.90;;
15230;SDS011;32569;51.762;8.564;2023-08-06T04:01:53;8.97;;;7.03;;
15230;SDS011;32569;51.762;8.564;2023-08-06T04:04:20;7.20;;;6.60;;
15230;SDS011;32569;51.762;8.564;2023-08-06T04:06:47;7.13;;;6.30;;
15230;SDS011;32569;51.762;8.564;2023-08-06T04:09:15;7.63;;;6.93;;
15230;SDS011;32569;51.762;8.564;2023-08-06T04:11:41;7.47;;;6.70;;
15230;SDS011;32569;51.762;8.564;2023-08-06T04:14:08;7.17;;;6.47;;
15230;SDS011;32569;51.762;8.564;2023-08-06T04:16:35;9.47;;;7.30;;
15230;SDS011;32569;51.762;8.564;2023-08-06T04:19:01;7.77;;;6.87;;
15230;SDS011;32569;51.762;8.564;2023-08-06T04:21:28;6.90;;;6.23;;
15230;SDS011;32569;51.762;8.564;2023-08-06T04:23:55;6.63;;;6.13;;
15230;SDS011;32569;51.762;8.564;2023-08-06T04:26:23;7.17;;;6.47;;
15230;SDS011;32569;51.762;8.564;2023-08-06T04:28:50;7.53;;;6.83;;
15230;SDS011;32569;51.762;8.564;2023-08-06T04:31:16;7.20;;;6.50;;
15230;SDS011;32569;51.762;8.564;2023-08-06T04:33:43;7.07;;;6.37;;
15230;SDS011;32569;51.762;8.564;2023-08-06T04:36:13;7.53;;;6.63;;
15230;SDS011;32569;51.762;8.564;2023-08-06T04:38:39;7.67;;;6.90;;
15230;SDS011;32569;51.762;8.564;2023-08-06T04:41:09;7.57;;;6.87;;
15230;SDS011;32569;51.762;8.564;2023-08-06T04:43:38;8.23;;;7.43;;
15230;SDS011;32569;51.762;8.564;2023-08-06T04:46:05;7.43;;;6.80;;
15230;SDS011;32569;51.762;8.564;2023-08-06T04:48:31;8.17;;;6.73;;
15230;SDS011;32569;51.762;8.564;2023-08-06T04:50:58;7.23;;;6.63;;
15230;SDS011;32569;51.762;8.564;2023-08-06T04:53:25;6.73;;;6.10;;
15230;SDS011;32569;51.762;8.564;2023-08-06T04:55:52;7.17;;;6.57;;
15230;SDS011;32569;51.762;8.564;2023-08-06T04:58:18;8.27;;;6.63;;
15230;SDS011;32569;51.762;8.564;2023-08-06T05:00:49;7.00;;;6.50;;
15230;SDS011;32569;51.762;8.564;2023-08-06T05:03:16;7.27;;;6.53;;
15230;SDS011;32569;51.762;8.564;2023-08-06T05:05:42;8.10;;;7.33;;
15230;SDS011;32569;51.762;8.564;2023-08-06T05:08:13;7.77;;;7.17;;
15230;SDS011;32569;51.762;8.564;2023-08-06T05:10:42;8.70;;;7.73;;
15230;SDS011;32569;51.762;8.564;2023-08-06T05:13:09;7.80;;;7.10;;
15230;SDS011;32569;51.762;8.564;2023-08-06T05:15:38;7.50;;;6.80;;
15230;SDS011;32569;51.762;8.564;2023-08-06T05:18:08;8.17;;;7.30;;
15230;SDS011;32569;51.762;8.564;2023-08-06T05:20:35;8.73;;;6.73;;
15230;SDS011;32569;51.762;8.564;2023-08-06T05:23:03;8.80;;;7.03;;
15230;SDS011;32569;51.762;8.564;2023-08-06T05:25:29;8.30;;;7.40;;
15230;SDS011;32569;51.762;8.564;2023-08-06T05:27:56;8.57;;;7.77;;
15230;SDS011;32569;51.762;8.564;2023-08-06T05:30:23;8.47;;;7.57;;
15230;SDS011;32569;51.762;8.564;2023-08-06T05:32:50;7.57;;;6.97;;
15230;SDS011;32569;51.762;8.564;2023-08-06T05:35:18;7.57;;;6.97;;
15230;SDS011;32569;51.762;8.564;2023-08-06T05:37:45;7.07;;;6.47;;
15230;SDS011;32569;51.762;8.564;2023-08-06T05:40:12;7.97;;;7.17;;
15230;SDS011;32569;51.762;8.564;2023-08-06T05:42:39;7.27;;;6.67;;
15230;SDS011;32569;51.762;8.564;2023-08-06T05:45:06;7.37;;;6.67;;
15230;SDS011;32569;51.762;8.564;2023-08-06T05:47:34;7.67;;;7.00;;
15230;SDS011;32569;51.762;8.564;2023-08-06T05:50:01;7.70;;;7.00;;
15230;SDS011;32569;51.762;8.564;2023-08-06T05:52:29;7.67;;;6.90;;
15230;SDS011;32569;51.762;8.564;2023-08-06T05:54:56;7.57;;;6.87;;
15230;SDS011;32569;51.762;8.564;2023-08-06T05:57:23;7.03;;;6.43;;
15230;SDS011;32569;51.762;8.564;2023-08-06T05:59:49;7.67;;;6.70;;
15230;SDS011;32569;51.762;8.564;2023-08-06T06:02:16;7.57;;;6.90;;
15230;SDS011;32569;51.762;8.564;2023-08-06T06:04:44;7.47;;;6.87;;
15230;SDS011;32569;51.762;8.564;2023-08-06T06:07:10;7.70;;;7.00;;
15230;SDS011;32569;51.762;8.564;2023-08-06T06:09:38;8.60;;;7.73;;
15230;SDS011;32569;51.762;8.564;2023-08-06T06:12:06;8.60;;;7.07;;
15230;SDS011;32569;51.762;8.564;2023-08-06T06:14:33;8.27;;;7.43;;
15230;SDS011;32569;51.762;8.564;2023-08-06T06:16:59;8.07;;;7.27;;
15230;SDS011;32569;51.762;8.564;2023-08-06T06:19:26;8.60;;;7.27;;
15230;SDS011;32569;51.762;8.564;2023-08-06T06:21:53;7.17;;;6.57;;
15230;SDS011;32569;51.762;8.564;2023-08-06T06:24:22;8.00;;;6.90;;
15230;SDS011;32569;51.762;8.564;2023-08-06T06:26:50;7.90;;;7.20;;
15230;SDS011;32569;51.762;8.564;2023-08-06T06:29:17;7.80;;;7.00;;
15230;SDS011;32569;51.762;8.564;2023-08-06T06:31:44;7.27;;;6.53;;
15230;SDS011;32569;51.762;8.564;2023-08-06T06:34:10;7.13;;;6.43;;
15230;SDS011;32569;51.762;8.564;2023-08-06T06:36:37;6.63;;;6.00;;
15230;SDS011;32569;51.762;8.564;2023-08-06T06:39:07;5.97;;;5.47;;
15230;SDS011;32569;51.762;8.564;2023-08-06T06:41:34;5.70;;;5.20;;
15230;SDS011;32569;51.762;8.564;2023-08-06T06:44:07;6.80;;;6.13;;
15230;SDS011;32569;51.762;8.564;2023-08-06T06:46:34;6.27;;;5.77;;
15230;SDS011;32569;51.762;8.564;2023-08-06T06:49:01;6.97;;;5.57;;
15230;SDS011;32569;51.762;8.564;2023-08-06T06:51:28;6.00;;;5.50;;
15230;SDS011;32569;51.762;8.564;2023-08-06T06:53:56;5.97;;;5.47;;
15230;SDS011;32569;51.762;8.564;2023-08-06T06:56:23;5.67;;;5.17;;
15230;SDS011;32569;51.762;8.564;2023-08-06T06:58:53;6.10;;;5.50;;
15230;SDS011;32569;51.762;8.564;2023-08-06T07:01:21;5.53;;;5.03;;
15230;SDS011;32569;51.762;8.564;2023-08-06T07:03:47;5.50;;;5.07;;
15230;SDS011;32569;51.762;8.564;2023-08-06T07:06:14;5.60;;;5.10;;
15230;SDS011;32569;51.762;8.564;2023-08-06T07:08:43;5.13;;;4.73;;
15230;SDS011;32569;51.762;8.564;2023-08-06T07:11:12;5.33;;;4.83;;
15230;SDS011;32569;51.762;8.564;2023-08-06T07:13:39;4.80;;;4.40;;
15230;SDS011;32569;51.762;8.564;2023-08-06T07:16:06;4.87;;;4.37;;
15230;SDS011;32569;51.762;8.564;2023-08-06T07:18:34;4.87;;;4.47;;
15230;SDS011;32569;51.762;8.564;2023-08-06T07:21:00;4.83;;;4.33;;
15230;SDS011;32569;51.762;8.564;2023-08-06T07:23:27;4.93;;;4.53;;
15230;SDS011;32569;51.762;8.564;2023-08-06T07:25:54;6.07;;;4.40;;
15230;SDS011;32569;51.762;8.564;2023-08-06T07:28:21;4.70;;;4.30;;
15230;SDS011;32569;51.762;8.564;2023-08-06T07:30:51;4.60;;;4.30;;
15230;SDS011;32569;51.762;8.564;2023-08-06T07:33:17;4.77;;;4.40;;
15230;SDS011;32569;51.762;8.564;2023-08-06T07:35:45;4.73;;;4.33;;
15230;SDS011;32569;51.762;8.564;2023-08-06T07:38:12;4.87;;;4.03;;
15230;SDS011;32569;51.762;8.564;2023-08-06T07:40:39;4.77;;;4.37;;
15230;SDS011;32569;51.762;8.564;2023-08-06T07:43:06;5.63;;;4.40;;
15230;SDS011;32569;51.762;8.564;2023-08-06T07:45:36;4.40;;;4.00;;
15230;SDS011;32569;51.762;8.564;2023-08-06T07:48:04;5.70;;;4.40;;
15230;SDS011;32569;51.762;8.564;2023-08-06T07:50:31;6.00;;;4.70;;
15230;SDS011;32569;51.762;8.564;2023-08-06T07:53:00;5.27;;;4.73;;
15230;SDS011;32569;51.762;8.564;2023-08-06T07:55:27;4.63;;;4.20;;
15230;SDS011;32569;51.762;8.564;2023-08-06T07:57:53;4.70;;;4.27;;
15230;SDS011;32569;51.762;8.564;2023-08-06T08:00:20;5.27;;;3.90;;
15230;SDS011;32569;51.762;8.564;2023-08-06T08:02:47;4.37;;;4.00;;
15230;SDS011;32569;51.762;8.564;2023-08-06T08:05:14;5.57;;;4.20;;
15230;SDS011;32569;51.762;8.564;2023-08-06T08:07:40;4.00;;;3.70;;
15230;SDS011;32569;51.762;8.564;2023-08-06T08:10:09;4.13;;;3.70;;
15230;SDS011;32569;51.762;8.564;2023-08-06T08:12:36;3.80;;;3.50;;
15230;SDS011;32569;51.762;8.564;2023-08-06T08:15:03;4.10;;;3.80;;
15230;SDS011;32569;51.762;8.564;2023-08-06T08:17:31;3.70;;;3.40;;
15230;SDS011;32569;51.762;8.564;2023-08-06T08:19:57;3.77;;;3.40;;
15230;SDS011;32569;51.762;8.564;2023-08-06T08:22:24;4.40;;;3.20;;
15230;SDS011;32569;51.762;8.564;2023-08-06T08:24:51;3.37;;;3.03;;
15230;SDS011;32569;51.762;8.564;2023-08-06T08:27:19;3.70;;;3.20;;
15230;SDS011;32569;51.762;8.564;2023-08-06T08:29:45;3.23;;;3.00;;
15230;SDS011;32569;51.762;8.564;2023-08-06T08:32:12;2.80;;;2.60;;
15230;SDS011;32569;51.762;8.564;2023-08-06T08:34:39;2.90;;;2.60;;
15230;SDS011;32569;51.762;8.564;2023-08-06T08:37:05;2.80;;;2.60;;
15230;SDS011;32569;51.762;8.564;2023-08-06T08:39:32;2.20;;;2.00;;
15230;SDS011;32569;51.762;8.564;2023-08-06T08:42:01;2.40;;;2.20;;
15230;SDS011;32569;51.762;8.564;2023-08-06T08:44:30;2.63;;;2.37;;
15230;SDS011;32569;51.762;8.564;2023-08-06T08:46:58;2.53;;;2.20;;
15230;SDS011;32569;51.762;8.564;2023-08-06T08:49:31;2.47;;;2.27;;
15230;SDS011;32569;51.762;8.564;2023-08-06T08:51:58;2.40;;;2.20;;
15230;SDS011;32569;51.762;8.564;2023-08-06T08:54:28;2.97;;;2.20;;
15230;SDS011;32569;51.762;8.564;2023-08-06T08:56:56;2.27;;;2.17;;
15230;SDS011;32569;51.762;8.564;2023-08-06T08:59:27;2.40;;;2.20;;
15230;SDS011;32569;51.762;8.564;2023-08-06T09:01:55;3.00;;;2.47;;
15230;SDS011;32569;51.762;8.564;2023-08-06T09:04:22;2.63;;;2.43;;
15230;SDS011;32569;51.762;8.564;2023-08-06T09:06:50;2.40;;;2.20;;
15230;SDS011;32569;51.762;8.564;2023-08-06T09:09:26;3.03;;;2.37;;
15230;SDS011;32569;51.762;8.564;2023-08-06T09:11:58;2.77;;;2.50;;
15230;SDS011;32569;51.762;8.564;2023-08-06T09:14:27;3.40;;;2.60;;
15230;SDS011;32569;51.762;8.564;2023-08-06T09:16:55;3.37;;;2.60;;
15230;SDS011;32569;51.762;8.564;2023-08-06T09:19:23;3.27;;;2.50;;
15230;SDS011;32569;51.762;8.564;2023-08-06T09:21:52;3.03;;;2.50;;
15230;SDS011;32569;51.762;8.564;2023-08-06T09:24:21;3.90;;;2.47;;
15230;SDS011;32569;51.762;8.564;2023-08-06T09:26:48;2.50;;;2.30;;
15230;SDS011;32569;51.762;8.564;2023-08-06T09:29:18;3.67;;;2.47;;
15230;SDS011;32569;51.762;8.564;2023-08-06T09:31:45;2.80;;;2.60;;
15230;SDS011;32569;51.762;8.564;2023-08-06T09:34:16;3.33;;;2.20;;
15230;SDS011;32569;51.762;8.564;2023-08-06T09:36:43;2.77;;;2.40;;
15230;SDS011;32569;51.762;8.564;2023-08-06T09:39:13;2.57;;;2.37;;
15230;SDS011;32569;51.762;8.564;2023-08-06T09:41:40;4.07;;;2.67;;
15230;SDS011;32569;51.762;8.564;2023-08-06T09:44:13;3.83;;;2.50;;
15230;SDS011;32569;51.762;8.564;2023-08-06T09:46:41;2.83;;;2.63;;
15230;SDS011;32569;51.762;8.564;2023-08-06T09:49:08;2.83;;;2.30;;
15230;SDS011;32569;51.762;8.564;2023-08-06T09:51:37;3.10;;;2.60;;
15230;SDS011;32569;51.762;8.564;2023-08-06T09:54:04;2.43;;;2.23;;
15230;SDS011;32569;51.762;8.564;2023-08-06T09:56:32;2.90;;;2.60;;
15230;SDS011;32569;51.762;8.564;2023-08-06T09:59:03;4.33;;;2.60;;
15230;SDS011;32569;51.762;8.564;2023-08-06T10:01:31;2.13;;;1.93;;
15230;SDS011;32569;51.762;8.564;2023-08-06T10:03:59;2.43;;;2.03;;
15230;SDS011;32569;51.762;8.564;2023-08-06T10:06:26;2.63;;;1.93;;
15230;SDS011;32569;51.762;8.564;2023-08-06T10:08:56;2.77;;;2.20;;
15230;SDS011;32569;51.762;8.564;2023-08-06T10:11:24;2.20;;;2.00;;
15230;SDS011;32569;51.762;8.564;2023-08-06T10:13:52;2.33;;;1.83;;
15230;SDS011;32569;51.762;8.564;2023-08-06T10:16:23;1.90;;;1.80;;
15230;SDS011;32569;51.762;8.564;2023-08-06T10:18:50;1.70;;;1.60;;
15230;SDS011;32569;51.762;8.564;2023-08-06T10:21:17;1.80;;;1.60;;
15230;SDS011;32569;51.762;8.564;2023-08-06T10:23:49;1.73;;;1.50;;
15230;SDS011;32569;51.762;8.564;2023-08-06T10:26:21;4.43;;;1.77;;
15230;SDS011;32569;51.762;8.564;2023-08-06T10:28:51;1.70;;;1.60;;
15230;SDS011;32569;51.762;8.564;2023-08-06T10:31:18;1.50;;;1.40;;
15230;SDS011;32569;51.762;8.564;2023-08-06T10:33:45;1.70;;;1.60;;
15230;SDS011;32569;51.762;8.564;2023-08-06T10:36:13;3.00;;;1.60;;
15230;SDS011;32569;51.762;8.564;2023-08-06T10:38:44;1.50;;;1.40;;
15230;SDS011;32569;51.762;8.564;2023-08-06T10:41:15;1.83;;;1.70;;
15230;SDS011;32569;51.762;8.564;2023-08-06T10:43:44;2.27;;;1.60;;
15230;SDS011;32569;51.762;8.564;2023-08-06T10:46:21;1.80;;;1.70;;
15230;SDS011;32569;51.762;8.564;2023-08-06T10:48:49;3.87;;;1.90;;
15230;SDS011;32569;51.762;8.564;2023-08-06T10:51:17;2.17;;;1.97;;
15230;SDS011;32569;51.762;8.564;2023-08-06T10:53:44;2.30;;;2.10;;
15230;SDS011;32569;51.762;8.564;2023-08-06T10:56:12;1.87;;;1.77;;
15230;SDS011;32569;51.762;8.564;2023-08-06T10:58:40;2.77;;;2.30;;
15230;SDS011;32569;51.762;8.564;2023-08-06T11:01:08;2.50;;;2.30;;
15230;SDS011;32569;51.762;8.564;2023-08-06T11:03:36;2.73;;;2.30;;
15230;SDS011;32569;51.762;8.564;2023-08-06T11:06:03;2.30;;;2.10;;
15230;SDS011;32569;51.762;8.564;2023-08-06T11:08:33;2.43;;;2.27;;
15230;SDS011;32569;51.762;8.564;2023-08-06T11:11:07;2.47;;;2.27;;
15230;SDS011;32569;51.762;8.564;2023-08-06T11:13:35;2.67;;;2.27;;
15230;SDS011;32569;51.762;8.564;2023-08-06T11:16:02;2.83;;;2.40;;
15230;SDS011;32569;51.762;8.564;2023-08-06T11:18:31;3.00;;;2.27;;
15230;SDS011;32569;51.762;8.564;2023-08-06T11:20:58;2.50;;;2.30;;
15230;SDS011;32569;51.762;8.564;2023-08-06T11:23:25;2.40;;;2.20;;
15230;SDS011;32569;51.762;8.564;2023-08-06T11:25:53;2.60;;;2.40;;
15230;SDS011;32569;51.762;8.564;2023-08-06T11:28:20;3.33;;;2.20;;
15230;SDS011;32569;51.762;8.564;2023-08-06T11:30:47;3.00;;;2.50;;
15230;SDS011;32569;51.762;8.564;2023-08-06T11:33:14;2.70;;;2.50;;
15230;SDS011;32569;51.762;8.564;2023-08-06T11:35:42;3.90;;;2.87;;
15230;SDS011;32569;51.762;8.564;2023-08-06T11:38:09;2.70;;;2.47;;
15230;SDS011;32569;51.762;8.564;2023-08-06T11:40:35;3.10;;;2.37;;
15230;SDS011;32569;51.762;8.564;2023-08-06T11:43:02;3.23;;;2.33;;
15230;SDS011;32569;51.762;8.564;2023-08-06T11:45:31;2.93;;;2.43;;
15230;SDS011;32569;51.762;8.564;2023-08-06T11:48:01;3.33;;;2.80;;
15230;SDS011;32569;51.762;8.564;2023-08-06T11:50:31;3.43;;;2.50;;
15230;SDS011;32569;51.762;8.564;2023-08-06T11:53:05;3.90;;;3.00;;
15230;SDS011;32569;51.762;8.564;2023-08-06T11:55:38;2.83;;;2.63;;
15230;SDS011;32569;51.762;8.564;2023-08-06T11:58:05;4.20;;;2.93;;
15230;SDS011;32569;51.762;8.564;2023-08-06T12:00:32;3.70;;;3.07;;
15230;SDS011;32569;51.762;8.564;2023-08-06T12:02:59;3.83;;;2.93;;
15230;SDS011;32569;51.762;8.564;2023-08-06T12:05:29;5.40;;;3.00;;
15230;SDS011;32569;51.762;8.564;2023-08-06T12:07:58;4.17;;;3.23;;
15230;SDS011;32569;51.762;8.564;2023-08-06T12:10:28;6.97;;;3.10;;
15230;SDS011;32569;51.762;8.564;2023-08-06T12:12:56;3.50;;;3.17;;
15230;SDS011;32569;51.762;8.564;2023-08-06T12:15:23;4.13;;;3.70;;
15230;SDS011;32569;51.762;8.564;2023-08-06T12:17:50;3.97;;;3.57;;
15230;SDS011;32569;51.762;8.564;2023-08-06T12:20:17;3.80;;;3.50;;
15230;SDS011;32569;51.762;8.564;2023-08-06T12:22:43;3.77;;;3.13;;
15230;SDS011;32569;51.762;8.564;2023-08-06T12:25:11;3.77;;;3.47;;
15230;SDS011;32569;51.762;8.564;2023-08-06T12:27:40;4.17;;;3.77;;
15230;SDS011;32569;51.762;8.564;2023-08-06T12:30:08;4.50;;;4.10;;
15230;SDS011;32569;51.762;8.564;2023-08-06T12:32:35;3.70;;;3.40;;
15230;SDS011;32569;51.762;8.564;2023-08-06T12:35:03;3.97;;;3.57;;
15230;SDS011;32569;51.762;8.564;2023-08-06T12:37:32;4.03;;;3.67;;
15230;SDS011;32569;51.762;8.564;2023-08-06T12:39:59;4.00;;;3.13;;
15230;SDS011;32569;51.762;8.564;2023-08-06T12:42:26;4.40;;;3.77;;
15230;SDS011;32569;51.762;8.564;2023-08-06T12:44:55;4.57;;;3.27;;
15230;SDS011;32569;51.762;8.564;2023-08-06T12:47:21;4.10;;;3.70;;
15230;SDS011;32569;51.762;8.564;2023-08-06T12:49:48;3.50;;;3.20;;
15230;SDS011;32569;51.762;8.564;2023-08-06T12:52:15;3.43;;;3.13;;
15230;SDS011;32569;51.762;8.564;2023-08-06T12:54:44;3.70;;;3.23;;
15230;SDS011;32569;51.762;8.564;2023-08-06T12:57:11;3.27;;;2.67;;
15230;SDS011;32569;51.762;8.564;2023-08-06T12:59:38;3.33;;;3.03;;
15230;SDS011;32569;51.762;8.564;2023-08-06T13:02:06;3.57;;;2.80;;
15230;SDS011;32569;51.762;8.564;2023-08-06T13:04:33;3.23;;;3.00;;
15230;SDS011;32569;51.762;8.564;2023-08-06T13:06:59;3.13;;;2.63;;
15230;SDS011;32569;51.762;8.564;2023-08-06T13:09:26;3.03;;;2.83;;
15230;SDS011;32569;51.762;8.564;2023-08-06T13:11:53;3.77;;;2.60;;
15230;SDS011;32569;51.762;8.564;2023-08-06T13:14:20;3.23;;;2.90;;
15230;SDS011;32569;51.762;8.564;2023-08-06T13:16:46;2.80;;;2.60;;
15230;SDS011;32569;51.762;8.564;2023-08-06T13:19:15;2.70;;;2.50;;
15230;SDS011;32569;51.762;8.564;2023-08-06T13:22:00;2.50;;;2.30;;
15230;SDS011;32569;51.762;8.564;2023-08-06T13:24:30;2.30;;;2.10;;
15230;SDS011;32569;51.762;8.564;2023-08-06T13:26:57;1.90;;;1.80;;
15230;SDS011;32569;51.762;8.564;2023-08-06T13:29:24;1.60;;;1.50;;
15230;SDS011;32569;51.762;8.564;2023-08-06T13:31:51;1.93;;;1.80;;
15230;SDS011;32569;51.762;8.564;2023-08-06T13:34:19;1.80;;;1.57;;
15230;SDS011;32569;51.762;8.564;2023-08-06T13:36:46;2.37;;;1.97;;
15230;SDS011;32569;51.762;8.564;2023-08-06T13:39:13;2.70;;;1.93;;
15230;SDS011;32569;51.762;8.564;2023-08-06T13:41:41;2.20;;;2.00;;
15230;SDS011;32569;51.762;8.564;2023-08-06T13:44:08;2.60;;;2.40;;
15230;SDS011;32569;51.762;8.564;2023-08-06T13:46:35;2.60;;;2.33;;
15230;SDS011;32569;51.762;8.564;2023-08-06T13:49:02;2.17;;;1.90;;
15230;SDS011;32569;51.762;8.564;2023-08-06T13:51:30;3.57;;;2.20;;
15230;SDS011;32569;51.762;8.564;2023-08-06T13:53:58;2.90;;;2.10;;
15230;SDS011;32569;51.762;8.564;2023-08-06T13:56:25;2.40;;;1.93;;
15230;SDS011;32569;51.762;8.564;2023-08-06T13:58:52;2.33;;;2.13;;
15230;SDS011;32569;51.762;8.564;2023-08-06T14:01:19;2.97;;;2.13;;
15230;SDS011;32569;51.762;8.564;2023-08-06T14:03:48;2.60;;;1.87;;
15230;SDS011;32569;51.762;8.564;2023-08-06T14:06:18;2.00;;;1.90;;
15230;SDS011;32569;51.762;8.564;2023-08-06T14:08:46;1.93;;;1.70;;
15230;SDS011;32569;51.762;8.564;2023-08-06T14:11:13;2.10;;;1.93;;
15230;SDS011;32569;51.762;8.564;2023-08-06T14:13:39;2.33;;;1.80;;
15230;SDS011;32569;51.762;8.564;2023-08-06T14:16:06;1.90;;;1.80;;
15230;SDS011;32569;51.762;8.564;2023-08-06T14:18:34;2.03;;;1.83;;
15230;SDS011;32569;51.762;8.564;2023-08-06T14:21:02;2.00;;;1.90;;
15230;SDS011;32569;51.762;8.564;2023-08-06T14:23:29;2.40;;;2.17;;
15230;SDS011;32569;51.762;8.564;2023-08-06T14:25:57;2.23;;;2.10;;
15230;SDS011;32569;51.762;8.564;2023-08-06T14:28:24;1.80;;;1.70;;
15230;SDS011;32569;51.762;8.564;2023-08-06T14:30:51;1.70;;;1.60;;
15230;SDS011;32569;51.762;8.564;2023-08-06T14:33:18;1.87;;;1.77;;
15230;SDS011;32569;51.762;8.564;2023-08-06T14:35:44;1.77;;;1.67;;
15230;SDS011;32569;51.762;8.564;2023-08-06T14:38:11;1.70;;;1.60;;
15230;SDS011;32569;51.762;8.564;2023-08-06T14:40:38;1.60;;;1.50;;
15230;SDS011;32569;51.762;8.564;2023-08-06T14:43:06;2.30;;;1.80;;
15230;SDS011;32569;51.762;8.564;2023-08-06T14:45:35;2.13;;;2.00;;
15230;SDS011;32569;51.762;8.564;2023-08-06T14:48:03;2.37;;;1.87;;
15230;SDS011;32569;51.762;8.564;2023-08-06T14:50:30;1.90;;;1.80;;
15230;SDS011;32569;51.762;8.564;2023-08-06T14:52:57;2.07;;;1.90;;
15230;SDS011;32569;51.762;8.564;2023-08-06T14:55:25;2.20;;;2.00;;